Terminal Aerodrome Forecast
Issued by NWS

Home | Current Version | Previous Version | Text Only | Print | Product List | Glossary On
Versions: 1 2 3 4 5 6 7 8 9 10 11 12 13
000
FTUS43 KDTX 292023 AAA
TAFMBS
TAF AMD
KMBS 292023Z 2920/3018 16008KT P6SM SCT050 BKN120
      TEMPO 2921/2922 3SM TSRA BKN040CB OVC060
     FM300300 15005KT P6SM BKN045 OVC060
     FM300900 07005KT P6SM OVC025
     FM301300 05005KT P6SM OVC015=

USA.gov is the U.S. government's official web portal to all federal, state and local government web resources and services.